sensor_id;sensor_type;location;lat;lon;timestamp;pressure;altitude;pressure_sealevel;temperature;humidity
49393;BME280;35268;42.642;23.308;2023-05-23T00:00:16;93813.56;;;11.93;79.85
49393;BME280;35268;42.642;23.308;2023-05-23T00:02:41;93825.69;;;11.91;79.66
49393;BME280;35268;42.642;23.308;2023-05-23T00:05:07;93817.22;;;11.89;79.61
49393;BME280;35268;42.642;23.308;2023-05-23T00:07:33;93810.75;;;11.90;79.68
49393;BME280;35268;42.642;23.308;2023-05-23T00:09:58;93803.88;;;11.89;79.79
49393;BME280;35268;42.642;23.308;2023-05-23T00:12:24;93798.56;;;11.71;80.46
49393;BME280;35268;42.642;23.308;2023-05-23T00:14:49;93793.69;;;11.73;80.29
49393;BME280;35268;42.642;23.308;2023-05-23T00:17:17;93797.91;;;11.74;80.20
49393;BME280;35268;42.642;23.308;2023-05-23T00:19:43;93795.25;;;11.74;79.87
49393;BME280;35268;42.642;23.308;2023-05-23T00:22:11;93797.13;;;11.74;79.50
49393;BME280;35268;42.642;23.308;2023-05-23T00:24:36;93798.72;;;11.75;78.99
49393;BME280;35268;42.642;23.308;2023-05-23T00:27:02;93798.72;;;11.75;78.98
49393;BME280;35268;42.642;23.308;2023-05-23T00:29:28;93802.78;;;11.72;79.03
49393;BME280;35268;42.642;23.308;2023-05-23T00:31:53;93796.97;;;11.70;78.96
49393;BME280;35268;42.642;23.308;2023-05-23T00:34:18;93793.38;;;11.66;78.99
49393;BME280;35268;42.642;23.308;2023-05-23T00:36:44;93791.38;;;11.63;79.11
49393;BME280;35268;42.642;23.308;2023-05-23T00:39:15;93793.72;;;11.64;79.27
49393;BME280;35268;42.642;23.308;2023-05-23T00:41:50;93803.28;;;11.65;79.21
49393;BME280;35268;42.642;23.308;2023-05-23T00:44:16;93800.94;;;11.64;79.16
49393;BME280;35268;42.642;23.308;2023-05-23T00:46:46;93792.47;;;11.62;79.01
49393;BME280;35268;42.642;23.308;2023-05-23T00:49:13;93785.25;;;11.62;79.02
49393;BME280;35268;42.642;23.308;2023-05-23T00:51:39;93786.19;;;11.58;79.07
49393;BME280;35268;42.642;23.308;2023-05-23T00:54:08;93785.13;;;11.59;79.10
49393;BME280;35268;42.642;23.308;2023-05-23T00:56:34;93795.31;;;11.57;79.45
49393;BME280;35268;42.642;23.308;2023-05-23T00:59:00;93794.22;;;11.58;79.25
49393;BME280;35268;42.642;23.308;2023-05-23T01:01:26;93790.75;;;11.57;79.45
49393;BME280;35268;42.642;23.308;2023-05-23T01:03:52;93797.38;;;11.51;79.47
49393;BME280;35268;42.642;23.308;2023-05-23T01:06:18;93799.28;;;11.51;79.36
49393;BME280;35268;42.642;23.308;2023-05-23T01:08:44;93797.38;;;11.51;79.61
49393;BME280;35268;42.642;23.308;2023-05-23T01:11:21;93796.28;;;11.52;79.65
49393;BME280;35268;42.642;23.308;2023-05-23T01:14:04;93801.47;;;11.49;79.70
49393;BME280;35268;42.642;23.308;2023-05-23T01:17:00;93809.19;;;11.50;79.65
49393;BME280;35268;42.642;23.308;2023-05-23T01:19:50;93807.13;;;11.47;79.76
49393;BME280;35268;42.642;23.308;2023-05-23T01:25:04;93804.16;;;11.49;79.43
49393;BME280;35268;42.642;23.308;2023-05-23T01:27:47;93798.34;;;11.47;79.87
49393;BME280;35268;42.642;23.308;2023-05-23T01:30:18;93788.31;;;11.43;80.44
49393;BME280;35268;42.642;23.308;2023-05-23T01:32:45;93793.00;;;11.47;81.08
49393;BME280;35268;42.642;23.308;2023-05-23T01:35:13;93794.09;;;11.45;81.48
49393;BME280;35268;42.642;23.308;2023-05-23T01:37:40;93797.88;;;11.44;81.52
49393;BME280;35268;42.642;23.308;2023-05-23T01:40:06;93795.69;;;11.47;81.33
49393;BME280;35268;42.642;23.308;2023-05-23T01:42:32;93790.03;;;11.48;81.24
49393;BME280;35268;42.642;23.308;2023-05-23T01:44:57;93788.91;;;11.49;80.98
49393;BME280;35268;42.642;23.308;2023-05-23T01:47:24;93791.44;;;11.45;81.02
49393;BME280;35268;42.642;23.308;2023-05-23T01:49:49;93800.56;;;11.44;81.16
49393;BME280;35268;42.642;23.308;2023-05-23T01:52:16;93794.09;;;11.45;81.10
49393;BME280;35268;42.642;23.308;2023-05-23T01:54:42;93784.53;;;11.44;81.01
49393;BME280;35268;42.642;23.308;2023-05-23T01:57:08;93788.75;;;11.45;81.33
49393;BME280;35268;42.642;23.308;2023-05-23T01:59:34;93785.03;;;11.38;81.72
49393;BME280;35268;42.642;23.308;2023-05-23T02:02:00;93777.34;;;11.36;81.84
49393;BME280;35268;42.642;23.308;2023-05-23T02:04:27;93783.63;;;11.40;81.98
49393;BME280;35268;42.642;23.308;2023-05-23T02:06:52;93786.75;;;11.42;81.88
49393;BME280;35268;42.642;23.308;2023-05-23T02:09:18;93783.63;;;11.40;81.97
49393;BME280;35268;42.642;23.308;2023-05-23T02:11:43;93778.44;;;11.35;81.89
49393;BME280;35268;42.642;23.308;2023-05-23T02:14:10;93777.19;;;11.33;82.09
49393;BME280;35268;42.642;23.308;2023-05-23T02:16:35;93782.69;;;11.36;81.46
49393;BME280;35268;42.642;23.308;2023-05-23T02:19:01;93785.97;;;11.33;81.19
49393;BME280;35268;42.642;23.308;2023-05-23T02:21:27;93786.78;;;11.34;81.31
49393;BME280;35268;42.642;23.308;2023-05-23T02:23:53;93788.66;;;11.33;81.23
49393;BME280;35268;42.642;23.308;2023-05-23T02:26:18;93785.53;;;11.31;80.97
49393;BME280;35268;42.642;23.308;2023-05-23T02:28:44;93785.69;;;11.26;80.89
49393;BME280;35268;42.642;23.308;2023-05-23T02:31:10;93786.78;;;11.25;81.01
49393;BME280;35268;42.642;23.308;2023-05-23T02:33:37;93792.78;;;11.22;80.98
49393;BME280;35268;42.642;23.308;2023-05-23T02:36:03;93785.72;;;11.17;81.02
49393;BME280;35268;42.642;23.308;2023-05-23T02:38:29;93777.25;;;11.15;81.10
49393;BME280;35268;42.642;23.308;2023-05-23T02:40:55;93771.13;;;11.15;81.07
49393;BME280;35268;42.642;23.308;2023-05-23T02:43:22;93774.91;;;11.14;81.11
49393;BME280;35268;42.642;23.308;2023-05-23T02:45:47;93771.78;;;11.12;80.99
49393;BME280;35268;42.642;23.308;2023-05-23T02:48:13;93765.16;;;11.09;81.28
49393;BME280;35268;42.642;23.308;2023-05-23T02:50:38;93763.31;;;11.10;81.22
49393;BME280;35268;42.642;23.308;2023-05-23T02:53:04;93772.09;;;11.10;81.19
49393;BME280;35268;42.642;23.308;2023-05-23T02:55:29;93766.28;;;11.08;81.05
49393;BME280;35268;42.642;23.308;2023-05-23T02:57:56;93769.44;;;11.01;81.06
49393;BME280;35268;42.642;23.308;2023-05-23T03:00:23;93765.50;;;10.99;81.18
49393;BME280;35268;42.642;23.308;2023-05-23T03:02:49;93770.72;;;10.95;81.24
49393;BME280;35268;42.642;23.308;2023-05-23T03:05:14;93774.63;;;10.98;81.00
49393;BME280;35268;42.642;23.308;2023-05-23T03:07:40;93774.94;;;10.96;81.12
49393;BME280;35268;42.642;23.308;2023-05-23T03:10:06;93779.03;;;10.94;80.88
49393;BME280;35268;42.642;23.308;2023-05-23T03:12:31;93783.91;;;10.92;81.17
49393;BME280;35268;42.642;23.308;2023-05-23T03:14:57;93785.31;;;10.89;81.89
49393;BME280;35268;42.642;23.308;2023-05-23T03:17:24;93779.34;;;10.92;81.68
49393;BME280;35268;42.642;23.308;2023-05-23T03:19:50;93780.91;;;10.93;82.53
49393;BME280;35268;42.642;23.308;2023-05-23T03:22:15;93777.44;;;10.93;82.95
49393;BME280;35268;42.642;23.308;2023-05-23T03:24:41;93778.56;;;10.92;82.92
49393;BME280;35268;42.642;23.308;2023-05-23T03:27:07;93774.50;;;10.86;83.13
49393;BME280;35268;42.642;23.308;2023-05-23T03:29:33;93791.28;;;10.86;83.64
49393;BME280;35268;42.642;23.308;2023-05-23T03:31:58;93785.00;;;10.82;83.86
49393;BME280;35268;42.642;23.308;2023-05-23T03:34:24;93783.56;;;10.84;83.98
49393;BME280;35268;42.642;23.308;2023-05-23T03:36:51;93794.41;;;10.88;83.88
49393;BME280;35268;42.642;23.308;2023-05-23T03:39:16;93792.84;;;10.87;84.04
49393;BME280;35268;42.642;23.308;2023-05-23T03:41:42;93795.50;;;10.87;83.54
49393;BME280;35268;42.642;23.308;2023-05-23T03:44:07;93799.28;;;10.86;83.26
49393;BME280;35268;42.642;23.308;2023-05-23T03:46:33;93806.81;;;10.84;83.45
49393;BME280;35268;42.642;23.308;2023-05-23T03:48:58;93803.97;;;10.80;83.40
49393;BME280;35268;42.642;23.308;2023-05-23T03:51:24;93806.97;;;10.79;83.81
49393;BME280;35268;42.642;23.308;2023-05-23T03:53:50;93802.88;;;10.81;84.34
49393;BME280;35268;42.642;23.308;2023-05-23T03:56:15;93810.13;;;10.81;84.59
49393;BME280;35268;42.642;23.308;2023-05-23T03:58:40;93804.91;;;10.84;84.84
49393;BME280;35268;42.642;23.308;2023-05-23T04:01:06;93808.19;;;10.90;84.66
49393;BME280;35268;42.642;23.308;2023-05-23T04:03:31;93803.03;;;10.94;84.99
49393;BME280;35268;42.642;23.308;2023-05-23T04:05:58;93806.78;;;10.93;85.06
49393;BME280;35268;42.642;23.308;2023-05-23T04:08:25;93809.59;;;10.96;85.57
49393;BME280;35268;42.642;23.308;2023-05-23T04:10:51;93814.94;;;10.96;85.70
49393;BME280;35268;42.642;23.308;2023-05-23T04:13:16;93806.31;;;10.99;86.00
49393;BME280;35268;42.642;23.308;2023-05-23T04:15:42;93807.25;;;11.03;86.28
49393;BME280;35268;42.642;23.308;2023-05-23T04:18:09;93809.59;;;11.05;86.38
49393;BME280;35268;42.642;23.308;2023-05-23T04:20:34;93800.19;;;11.08;87.03
49393;BME280;35268;42.642;23.308;2023-05-23T04:23:00;93806.28;;;11.08;87.92
49393;BME280;35268;42.642;23.308;2023-05-23T04:25:25;93807.53;;;11.11;88.22
49393;BME280;35268;42.642;23.308;2023-05-23T04:27:51;93802.22;;;11.11;88.94
49393;BME280;35268;42.642;23.308;2023-05-23T04:30:18;93800.00;;;11.13;89.56
49393;BME280;35268;42.642;23.308;2023-05-23T04:32:44;93801.88;;;11.21;90.37
49393;BME280;35268;42.642;23.308;2023-05-23T04:35:10;93801.88;;;11.21;90.28
49393;BME280;35268;42.642;23.308;2023-05-23T04:37:36;93801.72;;;11.26;90.50
49393;BME280;35268;42.642;23.308;2023-05-23T04:40:04;93807.78;;;11.35;90.77
49393;BME280;35268;42.642;23.308;2023-05-23T04:42:29;93817.34;;;11.45;90.24
49393;BME280;35268;42.642;23.308;2023-05-23T04:44:55;93809.94;;;11.51;89.58
49393;BME280;35268;42.642;23.308;2023-05-23T04:47:22;93808.72;;;11.48;89.40
49393;BME280;35268;42.642;23.308;2023-05-23T04:49:49;93812.44;;;11.56;89.72
49393;BME280;35268;42.642;23.308;2023-05-23T04:52:15;93809.91;;;11.59;89.32
49393;BME280;35268;42.642;23.308;2023-05-23T04:54:44;93820.44;;;11.64;88.49
49393;BME280;35268;42.642;23.308;2023-05-23T04:57:11;93824.97;;;11.64;88.84
49393;BME280;35268;42.642;23.308;2023-05-23T04:59:37;93834.38;;;11.70;89.08
49393;BME280;35268;42.642;23.308;2023-05-23T05:02:03;93826.69;;;11.69;88.62
49393;BME280;35268;42.642;23.308;2023-05-23T05:04:30;93822.19;;;11.60;88.66
49393;BME280;35268;42.642;23.308;2023-05-23T05:06:55;93831.13;;;11.56;89.13
49393;BME280;35268;42.642;23.308;2023-05-23T05:09:21;93821.06;;;11.61;90.17
49393;BME280;35268;42.642;23.308;2023-05-23T05:11:47;93829.47;;;11.72;90.24
49393;BME280;35268;42.642;23.308;2023-05-23T05:14:12;93834.97;;;11.84;89.90
49393;BME280;35268;42.642;23.308;2023-05-23T05:16:40;93834.94;;;11.93;89.38
49393;BME280;35268;42.642;23.308;2023-05-23T05:19:07;93830.00;;;12.04;89.40
49393;BME280;35268;42.642;23.308;2023-05-23T05:21:32;93834.81;;;12.19;89.24
49393;BME280;35268;42.642;23.308;2023-05-23T05:23:57;93837.09;;;12.30;88.77
49393;BME280;35268;42.642;23.308;2023-05-23T05:26:24;93835.66;;;12.32;88.00
49393;BME280;35268;42.642;23.308;2023-05-23T05:28:51;93834.22;;;12.35;87.84
49393;BME280;35268;42.642;23.308;2023-05-23T05:31:17;93826.03;;;12.40;88.15
49393;BME280;35268;42.642;23.308;2023-05-23T05:33:43;93835.13;;;12.48;87.63
49393;BME280;35268;42.642;23.308;2023-05-23T05:36:10;93829.69;;;12.56;87.70
49393;BME280;35268;42.642;23.308;2023-05-23T05:38:35;93840.47;;;12.69;87.01
49393;BME280;35268;42.642;23.308;2023-05-23T05:41:01;93837.72;;;12.77;86.52
49393;BME280;35268;42.642;23.308;2023-05-23T05:43:26;93842.78;;;12.91;85.75
49393;BME280;35268;42.642;23.308;2023-05-23T05:45:52;93849.09;;;13.08;85.41
49393;BME280;35268;42.642;23.308;2023-05-23T05:48:17;93839.34;;;13.24;84.23
49393;BME280;35268;42.642;23.308;2023-05-23T05:50:43;93847.25;;;13.41;83.36
49393;BME280;35268;42.642;23.308;2023-05-23T05:53:10;93848.28;;;13.61;82.45
49393;BME280;35268;42.642;23.308;2023-05-23T05:55:36;93838.84;;;13.76;81.83
49393;BME280;35268;42.642;23.308;2023-05-23T05:58:02;93844.66;;;13.91;80.82
49393;BME280;35268;42.642;23.308;2023-05-23T06:00:28;93842.88;;;14.07;79.80
49393;BME280;35268;42.642;23.308;2023-05-23T06:02:53;93838.16;;;14.16;78.26
49393;BME280;35268;42.642;23.308;2023-05-23T06:05:22;93837.97;;;14.09;78.22
49393;BME280;35268;42.642;23.308;2023-05-23T06:07:48;93830.13;;;14.16;78.53
49393;BME280;35268;42.642;23.308;2023-05-23T06:10:14;93835.28;;;14.21;78.00
49393;BME280;35268;42.642;23.308;2023-05-23T06:12:39;93828.91;;;14.26;77.43
49393;BME280;35268;42.642;23.308;2023-05-23T06:15:06;93841.09;;;14.23;77.52
49393;BME280;35268;42.642;23.308;2023-05-23T06:17:31;93844.09;;;14.22;78.22
49393;BME280;35268;42.642;23.308;2023-05-23T06:19:57;93843.06;;;14.27;78.51
49393;BME280;35268;42.642;23.308;2023-05-23T06:22:22;93842.41;;;14.30;78.51
49393;BME280;35268;42.642;23.308;2023-05-23T06:24:48;93840.41;;;14.27;78.18
49393;BME280;35268;42.642;23.308;2023-05-23T06:27:13;93850.00;;;14.40;79.89
49393;BME280;35268;42.642;23.308;2023-05-23T06:29:39;93845.66;;;14.48;79.04
49393;BME280;35268;42.642;23.308;2023-05-23T06:32:05;93842.38;;;14.67;79.14
49393;BME280;35268;42.642;23.308;2023-05-23T06:34:30;93855.00;;;14.78;76.51
49393;BME280;35268;42.642;23.308;2023-05-23T06:36:56;93860.66;;;14.89;76.61
49393;BME280;35268;42.642;23.308;2023-05-23T06:39:22;93862.31;;;14.94;75.63
49393;BME280;35268;42.642;23.308;2023-05-23T06:41:47;93863.78;;;14.91;75.63
49393;BME280;35268;42.642;23.308;2023-05-23T06:44:13;93860.91;;;14.84;75.56
49393;BME280;35268;42.642;23.308;2023-05-23T06:46:39;93852.66;;;14.77;75.98
49393;BME280;35268;42.642;23.308;2023-05-23T06:49:04;93846.50;;;14.76;76.96
49393;BME280;35268;42.642;23.308;2023-05-23T06:51:30;93848.50;;;14.79;76.54
49393;BME280;35268;42.642;23.308;2023-05-23T06:53:56;93844.47;;;14.85;77.71
49393;BME280;35268;42.642;23.308;2023-05-23T06:56:24;93838.16;;;14.94;77.64
49393;BME280;35268;42.642;23.308;2023-05-23T06:58:50;93834.50;;;14.98;78.29
49393;BME280;35268;42.642;23.308;2023-05-23T07:01:16;93829.75;;;15.08;77.73
49393;BME280;35268;42.642;23.308;2023-05-23T07:03:41;93822.06;;;15.22;77.42
49393;BME280;35268;42.642;23.308;2023-05-23T07:06:09;93831.31;;;15.37;76.54
49393;BME280;35268;42.642;23.308;2023-05-23T07:08:35;93819.34;;;15.50;75.54
49393;BME280;35268;42.642;23.308;2023-05-23T07:11:00;93820.84;;;15.63;75.62
49393;BME280;35268;42.642;23.308;2023-05-23T07:13:26;93820.91;;;15.79;74.86
49393;BME280;35268;42.642;23.308;2023-05-23T07:15:51;93820.19;;;15.82;74.27
49393;BME280;35268;42.642;23.308;2023-05-23T07:18:17;93821.16;;;15.90;73.34
49393;BME280;35268;42.642;23.308;2023-05-23T07:20:42;93813.28;;;15.81;72.82
49393;BME280;35268;42.642;23.308;2023-05-23T07:23:08;93821.31;;;15.97;72.63
49393;BME280;35268;42.642;23.308;2023-05-23T07:25:33;93807.88;;;16.13;72.64
49393;BME280;35268;42.642;23.308;2023-05-23T07:27:59;93803.59;;;16.28;71.71
49393;BME280;35268;42.642;23.308;2023-05-23T07:30:24;93798.28;;;16.32;71.63
49393;BME280;35268;42.642;23.308;2023-05-23T07:32:50;93808.50;;;16.42;71.50
49393;BME280;35268;42.642;23.308;2023-05-23T07:35:17;93792.63;;;16.53;70.98
49393;BME280;35268;42.642;23.308;2023-05-23T07:37:42;93803.16;;;16.61;71.20
49393;BME280;35268;42.642;23.308;2023-05-23T07:40:08;93804.16;;;16.73;70.07
49393;BME280;35268;42.642;23.308;2023-05-23T07:42:35;93798.66;;;16.85;70.00
49393;BME280;35268;42.642;23.308;2023-05-23T07:45:01;93794.72;;;16.98;69.33
49393;BME280;35268;42.642;23.308;2023-05-23T07:47:26;93798.47;;;17.13;69.21
49393;BME280;35268;42.642;23.308;2023-05-23T07:49:55;93797.19;;;17.27;67.27
49393;BME280;35268;42.642;23.308;2023-05-23T07:52:21;93793.13;;;17.36;67.18
49393;BME280;35268;42.642;23.308;2023-05-23T07:54:49;93790.97;;;17.45;66.23
49393;BME280;35268;42.642;23.308;2023-05-23T07:57:14;93791.13;;;17.53;65.94
49393;BME280;35268;42.642;23.308;2023-05-23T07:59:40;93790.94;;;17.65;66.21
49393;BME280;35268;42.642;23.308;2023-05-23T08:02:06;93794.28;;;17.81;65.95
49393;BME280;35268;42.642;23.308;2023-05-23T08:04:31;93791.38;;;17.90;65.08
49393;BME280;35268;42.642;23.308;2023-05-23T08:06:58;93798.34;;;17.91;65.20
49393;BME280;35268;42.642;23.308;2023-05-23T08:09:24;93780.75;;;18.01;64.55
49393;BME280;35268;42.642;23.308;2023-05-23T08:11:50;93779.34;;;18.11;63.79
49393;BME280;35268;42.642;23.308;2023-05-23T08:14:15;93779.94;;;18.23;63.31
49393;BME280;35268;42.642;23.308;2023-05-23T08:16:41;93781.16;;;18.30;61.16
49393;BME280;35268;42.642;23.308;2023-05-23T08:19:06;93777.13;;;18.43;61.37
49393;BME280;35268;42.642;23.308;2023-05-23T08:21:32;93782.84;;;18.38;61.88
49393;BME280;35268;42.642;23.308;2023-05-23T08:23:58;93784.13;;;18.48;61.62
49393;BME280;35268;42.642;23.308;2023-05-23T08:26:23;93775.44;;;18.61;61.58
49393;BME280;35268;42.642;23.308;2023-05-23T08:28:49;93781.72;;;18.69;62.35
49393;BME280;35268;42.642;23.308;2023-05-23T08:31:15;93780.16;;;18.68;61.28
49393;BME280;35268;42.642;23.308;2023-05-23T08:33:41;93784.84;;;18.71;61.74
49393;BME280;35268;42.642;23.308;2023-05-23T08:36:07;93788.44;;;18.79;60.80
49393;BME280;35268;42.642;23.308;2023-05-23T08:38:32;93786.50;;;18.79;59.73
49393;BME280;35268;42.642;23.308;2023-05-23T08:41:00;93778.13;;;18.88;59.29
49393;BME280;35268;42.642;23.308;2023-05-23T08:43:26;93777.41;;;18.91;57.54
49393;BME280;35268;42.642;23.308;2023-05-23T08:45:52;93782.97;;;19.06;58.79
49393;BME280;35268;42.642;23.308;2023-05-23T08:48:19;93783.94;;;19.24;59.44
49393;BME280;35268;42.642;23.308;2023-05-23T08:50:46;93775.59;;;19.36;58.98
49393;BME280;35268;42.642;23.308;2023-05-23T08:53:14;93777.63;;;19.47;57.02
49393;BME280;35268;42.642;23.308;2023-05-23T08:55:48;93777.94;;;19.41;54.36
49393;BME280;35268;42.642;23.308;2023-05-23T08:58:16;93777.34;;;19.59;54.56
49393;BME280;35268;42.642;23.308;2023-05-23T09:00:45;93773.66;;;19.74;53.82
49393;BME280;35268;42.642;23.308;2023-05-23T09:03:11;93780.28;;;19.84;52.18
49393;BME280;35268;42.642;23.308;2023-05-23T09:05:40;93778.75;;;19.83;52.71
49393;BME280;35268;42.642;23.308;2023-05-23T09:08:06;93765.72;;;19.96;53.75
49393;BME280;35268;42.642;23.308;2023-05-23T09:10:32;93769.28;;;20.11;51.74
49393;BME280;35268;42.642;23.308;2023-05-23T09:12:57;93775.59;;;20.26;52.48
49393;BME280;35268;42.642;23.308;2023-05-23T09:15:22;93766.41;;;20.41;49.94
49393;BME280;35268;42.642;23.308;2023-05-23T09:17:48;93775.00;;;20.57;48.84
49393;BME280;35268;42.642;23.308;2023-05-23T09:20:16;93775.50;;;20.67;47.80
49393;BME280;35268;42.642;23.308;2023-05-23T09:22:46;93777.09;;;20.78;46.24
49393;BME280;35268;42.642;23.308;2023-05-23T09:25:12;93773.25;;;20.90;45.24
49393;BME280;35268;42.642;23.308;2023-05-23T09:27:38;93767.88;;;20.97;44.52
49393;BME280;35268;42.642;23.308;2023-05-23T09:30:07;93768.72;;;21.09;43.26
49393;BME280;35268;42.642;23.308;2023-05-23T09:32:33;93767.97;;;21.19;42.11
49393;BME280;35268;42.642;23.308;2023-05-23T09:35:01;93762.56;;;21.26;43.59
49393;BME280;35268;42.642;23.308;2023-05-23T09:37:38;93766.84;;;21.34;43.13
49393;BME280;35268;42.642;23.308;2023-05-23T09:40:09;93766.88;;;21.41;42.78
49393;BME280;35268;42.642;23.308;2023-05-23T09:42:36;93765.75;;;21.50;41.36
49393;BME280;35268;42.642;23.308;2023-05-23T09:45:09;93771.19;;;21.57;41.87
49393;BME280;35268;42.642;23.308;2023-05-23T09:47:34;93761.50;;;21.67;41.17
49393;BME280;35268;42.642;23.308;2023-05-23T09:50:00;93763.84;;;21.75;40.46
49393;BME280;35268;42.642;23.308;2023-05-23T09:52:25;93752.22;;;21.78;41.03
49393;BME280;35268;42.642;23.308;2023-05-23T09:54:53;93751.84;;;21.87;41.17
49393;BME280;35268;42.642;23.308;2023-05-23T09:57:21;93737.91;;;21.92;39.30
49393;BME280;35268;42.642;23.308;2023-05-23T09:59:56;93751.44;;;22.03;40.83
49393;BME280;35268;42.642;23.308;2023-05-23T10:05:44;93749.50;;;22.14;38.67
49393;BME280;35268;42.642;23.308;2023-05-23T10:08:15;93745.25;;;22.24;39.46
49393;BME280;35268;42.642;23.308;2023-05-23T10:13:40;93745.25;;;22.24;38.32
49393;BME280;35268;42.642;23.308;2023-05-23T10:18:58;93742.53;;;22.28;38.26
49393;BME280;35268;42.642;23.308;2023-05-23T10:21:58;93746.41;;;22.41;37.97
49393;BME280;35268;42.642;23.308;2023-05-23T10:24:24;93735.91;;;22.50;35.02
49393;BME280;35268;42.642;23.308;2023-05-23T10:26:51;93735.91;;;22.47;33.84
49393;BME280;35268;42.642;23.308;2023-05-23T10:29:17;93737.06;;;22.49;36.23
49393;BME280;35268;42.642;23.308;2023-05-23T10:31:43;93729.69;;;22.53;37.00
49393;BME280;35268;42.642;23.308;2023-05-23T10:34:38;93737.81;;;22.57;37.04
49393;BME280;35268;42.642;23.308;2023-05-23T10:37:07;93727.34;;;22.59;35.34
49393;BME280;35268;42.642;23.308;2023-05-23T10:42:34;93730.81;;;22.67;37.26
49393;BME280;35268;42.642;23.308;2023-05-23T10:45:16;93728.84;;;22.71;36.51
49393;BME280;35268;42.642;23.308;2023-05-23T10:47:42;93727.66;;;22.79;37.27
49393;BME280;35268;42.642;23.308;2023-05-23T10:50:12;93718.69;;;22.89;37.17
49393;BME280;35268;42.642;23.308;2023-05-23T10:52:40;93719.06;;;23.02;36.75
49393;BME280;35268;42.642;23.308;2023-05-23T10:55:13;93723.31;;;23.10;36.82
49393;BME280;35268;42.642;23.308;2023-05-23T10:57:39;93723.25;;;23.21;36.07
49393;BME280;35268;42.642;23.308;2023-05-23T11:00:17;93713.88;;;23.26;36.40
49393;BME280;35268;42.642;23.308;2023-05-23T11:02:52;93714.63;;;23.33;35.85
49393;BME280;35268;42.642;23.308;2023-05-23T11:05:19;93714.59;;;23.37;36.59
49393;BME280;35268;42.642;23.308;2023-05-23T11:07:46;93702.91;;;23.43;36.06
49393;BME280;35268;42.642;23.308;2023-05-23T11:10:30;93700.56;;;23.46;32.80
49393;BME280;35268;42.642;23.308;2023-05-23T11:13:05;93710.59;;;23.56;34.64
49393;BME280;35268;42.642;23.308;2023-05-23T11:15:40;93704.28;;;23.70;34.50
49393;BME280;35268;42.642;23.308;2023-05-23T11:18:06;93707.75;;;23.77;33.37
49393;BME280;35268;42.642;23.308;2023-05-23T11:20:33;93710.72;;;23.94;32.14
49393;BME280;35268;42.642;23.308;2023-05-23T11:23:03;93707.19;;;23.97;30.44
49393;BME280;35268;42.642;23.308;2023-05-23T11:25:44;93702.31;;;23.70;31.10
49393;BME280;35268;42.642;23.308;2023-05-23T11:28:10;93695.00;;;23.63;31.95
49393;BME280;35268;42.642;23.308;2023-05-23T11:30:36;93693.38;;;23.70;31.84
49393;BME280;35268;42.642;23.308;2023-05-23T11:33:12;93702.66;;;23.76;31.35
49393;BME280;35268;42.642;23.308;2023-05-23T11:35:43;93698.66;;;23.95;31.10
49393;BME280;35268;42.642;23.308;2023-05-23T11:38:09;93703.56;;;24.11;32.56
49393;BME280;35268;42.642;23.308;2023-05-23T11:40:39;93691.41;;;24.22;32.27
49393;BME280;35268;42.642;23.308;2023-05-23T11:43:10;93683.88;;;24.34;32.21
49393;BME280;35268;42.642;23.308;2023-05-23T11:45:37;93684.72;;;24.31;30.28
49393;BME280;35268;42.642;23.308;2023-05-23T11:48:07;93675.31;;;24.35;30.73
49393;BME280;35268;42.642;23.308;2023-05-23T11:50:33;93677.16;;;24.46;31.21
49393;BME280;35268;42.642;23.308;2023-05-23T11:53:02;93675.53;;;24.55;32.28
49393;BME280;35268;42.642;23.308;2023-05-23T11:55:27;93682.22;;;24.81;31.89
49393;BME280;35268;42.642;23.308;2023-05-23T11:57:54;93681.13;;;25.06;30.91
49393;BME280;35268;42.642;23.308;2023-05-23T12:00:20;93665.91;;;25.09;30.18
49393;BME280;35268;42.642;23.308;2023-05-23T12:02:45;93666.25;;;25.11;31.33
49393;BME280;35268;42.642;23.308;2023-05-23T12:05:14;93671.09;;;25.30;31.13
49393;BME280;35268;42.642;23.308;2023-05-23T12:07:41;93683.00;;;25.40;30.18
49393;BME280;35268;42.642;23.308;2023-05-23T12:10:10;93664.84;;;25.57;29.23
49393;BME280;35268;42.642;23.308;2023-05-23T12:12:39;93660.94;;;25.58;29.35
49393;BME280;35268;42.642;23.308;2023-05-23T12:15:05;93657.66;;;25.43;27.60
49393;BME280;35268;42.642;23.308;2023-05-23T12:17:31;93659.09;;;25.51;29.06
49393;BME280;35268;42.642;23.308;2023-05-23T12:19:57;93655.94;;;25.76;29.68
49393;BME280;35268;42.642;23.308;2023-05-23T12:22:22;93658.38;;;25.98;28.97
49393;BME280;35268;42.642;23.308;2023-05-23T12:24:52;93654.53;;;26.15;25.81
49393;BME280;35268;42.642;23.308;2023-05-23T12:27:17;93649.81;;;25.96;25.99
49393;BME280;35268;42.642;23.308;2023-05-23T12:29:49;93637.59;;;26.04;26.46
49393;BME280;35268;42.642;23.308;2023-05-23T12:32:15;93637.25;;;26.22;27.50
49393;BME280;35268;42.642;23.308;2023-05-23T12:34:41;93634.00;;;26.51;28.94
49393;BME280;35268;42.642;23.308;2023-05-23T12:37:07;93632.09;;;26.88;27.88
49393;BME280;35268;42.642;23.308;2023-05-23T12:39:35;93635.84;;;27.14;27.22
49393;BME280;35268;42.642;23.308;2023-05-23T12:42:07;93630.50;;;27.27;26.36
49393;BME280;35268;42.642;23.308;2023-05-23T12:44:34;93628.03;;;27.49;26.09
49393;BME280;35268;42.642;23.308;2023-05-23T12:47:00;93631.44;;;27.86;26.96
49393;BME280;35268;42.642;23.308;2023-05-23T12:49:25;93632.50;;;27.92;25.59
49393;BME280;35268;42.642;23.308;2023-05-23T12:51:50;93619.09;;;28.10;26.04
49393;BME280;35268;42.642;23.308;2023-05-23T12:54:16;93622.44;;;28.47;26.31
49393;BME280;35268;42.642;23.308;2023-05-23T12:56:42;93618.13;;;28.63;26.28
49393;BME280;35268;42.642;23.308;2023-05-23T12:59:07;93610.72;;;28.89;25.22
49393;BME280;35268;42.642;23.308;2023-05-23T13:01:33;93607.00;;;29.08;25.08
49393;BME280;35268;42.642;23.308;2023-05-23T13:03:59;93611.94;;;29.00;23.46